sensor_id;sensor_type;location;lat;lon;timestamp;pressure;altitude;pressure_sealevel;temperature;humidity
63665;BME280;49820;33.966;73.390;2023-09-18T03:20:22;78775.31;;;25.74;79.61
63665;BME280;49820;33.966;73.390;2023-09-18T03:22:55;78790.22;;;25.86;78.46
63665;BME280;49820;33.966;73.390;2023-09-18T03:25:25;78788.09;;;26.05;77.38
63665;BME280;49820;33.966;73.390;2023-09-18T03:27:56;78789.13;;;26.19;73.56
63665;BME280;49820;33.966;73.390;2023-09-18T03:30:30;78777.66;;;25.61;68.38
63665;BME280;49820;33.966;73.390;2023-09-18T03:33:01;78808.59;;;25.68;70.29
63665;BME280;49820;33.966;73.390;2023-09-18T03:35:31;78814.94;;;25.75;75.27
63665;BME280;49820;33.966;73.390;2023-09-18T03:38:01;78815.53;;;26.14;71.16
63665;BME280;49820;33.966;73.390;2023-09-18T03:40:31;78812.56;;;26.54;71.59
63665;BME280;49820;33.966;73.390;2023-09-18T03:43:01;78821.06;;;26.78;71.79
63665;BME280;49820;33.966;73.390;2023-09-18T03:45:31;78784.38;;;25.81;70.00
63665;BME280;49820;33.966;73.390;2023-09-18T03:48:01;78836.16;;;24.65;75.98
63665;BME280;49820;33.966;73.390;2023-09-18T03:50:30;78833.53;;;24.33;79.59
63665;BME280;49820;33.966;73.390;2023-09-18T03:53:00;78845.19;;;23.59;85.28
63665;BME280;49820;33.966;73.390;2023-09-18T03:55:29;78823.94;;;22.96;93.86
63665;BME280;49820;33.966;73.390;2023-09-18T03:58:00;78799.38;;;22.30;94.40
63665;BME280;49820;33.966;73.390;2023-09-18T04:00:29;78830.25;;;22.03;100.00
63665;BME280;49820;33.966;73.390;2023-09-18T04:02:59;78813.41;;;21.18;100.00
63665;BME280;49820;33.966;73.390;2023-09-18T04:05:29;78850.09;;;21.66;100.00
63665;BME280;49820;33.966;73.390;2023-09-18T04:07:59;78834.06;;;21.01;100.00
63665;BME280;49820;33.966;73.390;2023-09-18T04:10:28;78855.31;;;21.34;100.00
63665;BME280;49820;33.966;73.390;2023-09-18T04:12:57;78848.78;;;20.80;100.00
63665;BME280;49820;33.966;73.390;2023-09-18T04:15:27;78805.19;;;20.34;100.00
63665;BME280;49820;33.966;73.390;2023-09-18T04:17:58;78815.38;;;20.33;100.00
63665;BME280;49820;33.966;73.390;2023-09-18T04:20:28;78818.84;;;20.32;100.00
63665;BME280;49820;33.966;73.390;2023-09-18T04:23:19;78852.19;;;20.43;100.00
63665;BME280;49820;33.966;73.390;2023-09-18T04:25:50;78854.03;;;20.34;100.00
63665;BME280;49820;33.966;73.390;2023-09-18T04:28:21;78867.56;;;20.21;100.00
63665;BME280;49820;33.966;73.390;2023-09-18T04:30:51;78853.44;;;19.93;100.00
63665;BME280;49820;33.966;73.390;2023-09-18T04:33:21;78803.47;;;19.23;100.00
63665;BME280;49820;33.966;73.390;2023-09-18T04:35:51;78860.53;;;19.61;100.00
63665;BME280;49820;33.966;73.390;2023-09-18T04:38:21;78827.00;;;18.99;100.00
63665;BME280;49820;33.966;73.390;2023-09-18T04:40:58;78868.09;;;19.31;100.00
63665;BME280;49820;33.966;73.390;2023-09-18T04:43:28;78842.22;;;19.34;100.00
63665;BME280;49820;33.966;73.390;2023-09-18T04:46:00;78805.34;;;19.26;100.00
63665;BME280;49820;33.966;73.390;2023-09-18T04:48:35;78863.81;;;19.76;100.00
63665;BME280;49820;33.966;73.390;2023-09-18T04:51:05;78850.34;;;19.61;100.00
63665;BME280;49820;33.966;73.390;2023-09-18T04:53:35;78868.84;;;19.57;100.00
63665;BME280;49820;33.966;73.390;2023-09-18T04:56:04;78822.00;;;19.18;100.00
63665;BME280;49820;33.966;73.390;2023-09-18T04:58:34;78872.81;;;19.45;100.00
63665;BME280;49820;33.966;73.390;2023-09-18T05:01:06;78794.34;;;18.76;100.00
63665;BME280;49820;33.966;73.390;2023-09-18T05:03:38;78882.44;;;19.42;100.00
63665;BME280;49820;33.966;73.390;2023-09-18T05:06:11;78867.91;;;19.35;100.00
63665;BME280;49820;33.966;73.390;2023-09-18T05:08:40;78873.63;;;19.56;100.00
63665;BME280;49820;33.966;73.390;2023-09-18T05:11:09;78673.28;;;17.92;100.00
63665;BME280;49820;33.966;73.390;2023-09-18T05:13:41;78871.00;;;19.54;100.00
63665;BME280;49820;33.966;73.390;2023-09-18T05:16:11;78851.88;;;19.43;100.00
63665;BME280;49820;33.966;73.390;2023-09-18T05:18:40;78874.59;;;19.63;100.00
63665;BME280;49820;33.966;73.390;2023-09-18T05:21:09;78857.91;;;19.31;100.00
63665;BME280;49820;33.966;73.390;2023-09-18T05:23:39;78857.88;;;19.19;100.00
63665;BME280;49820;33.966;73.390;2023-09-18T05:26:08;78875.81;;;19.12;100.00
63665;BME280;49820;33.966;73.390;2023-09-18T05:28:38;78869.09;;;19.11;100.00
63665;BME280;49820;33.966;73.390;2023-09-18T05:31:07;78887.19;;;19.14;100.00
63665;BME280;49820;33.966;73.390;2023-09-18T05:33:36;78882.00;;;19.10;100.00
63665;BME280;49820;33.966;73.390;2023-09-18T05:36:06;78833.78;;;18.85;100.00
63665;BME280;49820;33.966;73.390;2023-09-18T05:38:35;78879.97;;;19.23;100.00
63665;BME280;49820;33.966;73.390;2023-09-18T05:41:05;78873.13;;;19.12;100.00
63665;BME280;49820;33.966;73.390;2023-09-18T05:43:35;78805.72;;;18.78;100.00
63665;BME280;49820;33.966;73.390;2023-09-18T05:46:04;78870.59;;;19.35;100.00
63665;BME280;49820;33.966;73.390;2023-09-18T05:48:34;78851.16;;;19.18;100.00
63665;BME280;49820;33.966;73.390;2023-09-18T05:51:03;78842.03;;;19.11;100.00
63665;BME280;49820;33.966;73.390;2023-09-18T05:53:32;78863.44;;;19.57;100.00
63665;BME280;49820;33.966;73.390;2023-09-18T05:56:04;78870.13;;;19.85;100.00
63665;BME280;49820;33.966;73.390;2023-09-18T05:58:33;78873.63;;;20.22;100.00
63665;BME280;49820;33.966;73.390;2023-09-18T06:01:04;78835.56;;;20.36;100.00
63665;BME280;49820;33.966;73.390;2023-09-18T06:03:33;78856.19;;;20.82;100.00
63665;BME280;49820;33.966;73.390;2023-09-18T06:06:05;78844.38;;;21.23;100.00
63665;BME280;49820;33.966;73.390;2023-09-18T06:08:35;78761.13;;;20.82;100.00
63665;BME280;49820;33.966;73.390;2023-09-18T06:11:05;78849.03;;;21.84;100.00
63665;BME280;49820;33.966;73.390;2023-09-18T06:13:34;78828.47;;;21.87;100.00
63665;BME280;49820;33.966;73.390;2023-09-18T06:16:05;78832.97;;;22.03;100.00
63665;BME280;49820;33.966;73.390;2023-09-18T06:18:36;78836.03;;;21.74;100.00
63665;BME280;49820;33.966;73.390;2023-09-18T06:21:07;78832.34;;;21.90;100.00
63665;BME280;49820;33.966;73.390;2023-09-18T06:23:36;78855.41;;;22.38;100.00
63665;BME280;49820;33.966;73.390;2023-09-18T06:26:06;78837.63;;;21.82;100.00
63665;BME280;49820;33.966;73.390;2023-09-18T06:28:35;78820.69;;;21.09;100.00
63665;BME280;49820;33.966;73.390;2023-09-18T06:31:05;78849.88;;;20.60;100.00
63665;BME280;49820;33.966;73.390;2023-09-18T06:33:34;78860.66;;;20.49;100.00
63665;BME280;49820;33.966;73.390;2023-09-18T06:36:05;78861.41;;;20.35;100.00
63665;BME280;49820;33.966;73.390;2023-09-18T06:38:34;78834.25;;;20.23;100.00
63665;BME280;49820;33.966;73.390;2023-09-18T06:41:03;78838.03;;;20.15;100.00
63665;BME280;49820;33.966;73.390;2023-09-18T06:43:33;78851.06;;;20.12;100.00
63665;BME280;49820;33.966;73.390;2023-09-18T06:46:02;78842.38;;;20.10;100.00
63665;BME280;49820;33.966;73.390;2023-09-18T06:48:32;78842.59;;;20.31;100.00
63665;BME280;49820;33.966;73.390;2023-09-18T06:51:01;78828.94;;;20.08;100.00
63665;BME280;49820;33.966;73.390;2023-09-18T06:53:31;78850.50;;;19.97;100.00
63665;BME280;49820;33.966;73.390;2023-09-18T06:56:01;78821.03;;;19.24;100.00
63665;BME280;49820;33.966;73.390;2023-09-18T06:58:31;78818.44;;;19.22;100.00
63665;BME280;49820;33.966;73.390;2023-09-18T07:01:19;78842.72;;;18.96;100.00
63665;BME280;49820;33.966;73.390;2023-09-18T07:03:49;78837.06;;;18.88;100.00
63665;BME280;49820;33.966;73.390;2023-09-18T07:06:19;78817.38;;;18.75;100.00
63665;BME280;49820;33.966;73.390;2023-09-18T07:08:49;78821.03;;;18.69;100.00
63665;BME280;49820;33.966;73.390;2023-09-18T07:11:19;78835.75;;;18.87;100.00
63665;BME280;49820;33.966;73.390;2023-09-18T07:13:52;78817.03;;;18.53;100.00
63665;BME280;49820;33.966;73.390;2023-09-18T07:16:22;78846.16;;;18.67;100.00
63665;BME280;49820;33.966;73.390;2023-09-18T07:18:52;78851.91;;;18.74;100.00
63665;BME280;49820;33.966;73.390;2023-09-18T07:21:22;78823.72;;;18.84;100.00
63665;BME280;49820;33.966;73.390;2023-09-18T07:23:51;78775.19;;;18.38;100.00
63665;BME280;49820;33.966;73.390;2023-09-18T07:26:21;78825.69;;;19.13;100.00
63665;BME280;49820;33.966;73.390;2023-09-18T07:28:50;78814.28;;;18.83;100.00
63665;BME280;49820;33.966;73.390;2023-09-18T07:31:20;78807.13;;;18.77;100.00
63665;BME280;49820;33.966;73.390;2023-09-18T07:33:50;78830.56;;;19.23;100.00
63665;BME280;49820;33.966;73.390;2023-09-18T07:36:22;78814.97;;;19.51;100.00
63665;BME280;49820;33.966;73.390;2023-09-18T07:38:51;78794.63;;;20.28;100.00
63665;BME280;49820;33.966;73.390;2023-09-18T07:41:23;78801.25;;;20.56;100.00
63665;BME280;49820;33.966;73.390;2023-09-18T07:43:53;78811.88;;;20.73;100.00
63665;BME280;49820;33.966;73.390;2023-09-18T07:46:23;78814.81;;;20.43;100.00
63665;BME280;49820;33.966;73.390;2023-09-18T07:48:53;78813.41;;;20.57;100.00
63665;BME280;49820;33.966;73.390;2023-09-18T07:51:23;78812.06;;;20.81;100.00
63665;BME280;49820;33.966;73.390;2023-09-18T07:53:52;78806.09;;;20.91;100.00
63665;BME280;49820;33.966;73.390;2023-09-18T07:56:21;78767.03;;;20.61;100.00
63665;BME280;49820;33.966;73.390;2023-09-18T07:58:51;78781.25;;;20.74;100.00
63665;BME280;49820;33.966;73.390;2023-09-18T08:01:21;78802.72;;;20.91;100.00
63665;BME280;49820;33.966;73.390;2023-09-18T08:03:51;78768.34;;;20.62;100.00
63665;BME280;49820;33.966;73.390;2023-09-18T08:06:20;78809.50;;;21.15;100.00
63665;BME280;49820;33.966;73.390;2023-09-18T08:08:50;78776.53;;;20.85;100.00
63665;BME280;49820;33.966;73.390;2023-09-18T08:11:21;78789.75;;;21.04;100.00
63665;BME280;49820;33.966;73.390;2023-09-18T08:13:50;78757.47;;;20.75;100.00
63665;BME280;49820;33.966;73.390;2023-09-18T08:16:19;78802.50;;;21.31;100.00
63665;BME280;49820;33.966;73.390;2023-09-18T08:18:49;78790.56;;;21.49;100.00
63665;BME280;49820;33.966;73.390;2023-09-18T08:21:19;78796.38;;;21.66;100.00
63665;BME280;49820;33.966;73.390;2023-09-18T08:23:49;78789.91;;;21.95;100.00
63665;BME280;49820;33.966;73.390;2023-09-18T08:26:18;78796.34;;;22.13;100.00
63665;BME280;49820;33.966;73.390;2023-09-18T08:28:48;78800.34;;;22.37;100.00
63665;BME280;49820;33.966;73.390;2023-09-18T08:31:18;78749.84;;;22.17;100.00
63665;BME280;49820;33.966;73.390;2023-09-18T08:33:47;78758.84;;;22.37;100.00
63665;BME280;49820;33.966;73.390;2023-09-18T08:36:17;78754.97;;;22.55;100.00
63665;BME280;49820;33.966;73.390;2023-09-18T08:38:47;78774.25;;;22.74;100.00
63665;BME280;49820;33.966;73.390;2023-09-18T08:41:18;78775.50;;;22.65;100.00
63665;BME280;49820;33.966;73.390;2023-09-18T08:43:51;78783.13;;;22.52;100.00
63665;BME280;49820;33.966;73.390;2023-09-18T08:46:21;78748.00;;;22.58;100.00
63665;BME280;49820;33.966;73.390;2023-09-18T08:48:51;78762.19;;;23.35;100.00
63665;BME280;49820;33.966;73.390;2023-09-18T08:51:23;78766.09;;;24.21;100.00
63665;BME280;49820;33.966;73.390;2023-09-18T08:53:54;78759.88;;;24.12;100.00
63665;BME280;49820;33.966;73.390;2023-09-18T08:56:24;78773.38;;;24.14;100.00
63665;BME280;49820;33.966;73.390;2023-09-18T08:58:54;78694.63;;;24.08;100.00
63665;BME280;49820;33.966;73.390;2023-09-18T09:01:25;78746.72;;;24.55;100.00
63665;BME280;49820;33.966;73.390;2023-09-18T09:03:55;78740.06;;;25.12;100.00
63665;BME280;49820;33.966;73.390;2023-09-18T09:06:24;78753.97;;;26.32;98.09
63665;BME280;49820;33.966;73.390;2023-09-18T09:08:54;78732.97;;;27.19;99.19
63665;BME280;49820;33.966;73.390;2023-09-18T09:11:24;78722.41;;;27.75;99.70
63665;BME280;49820;33.966;73.390;2023-09-18T09:14:14;78733.22;;;28.03;86.35
63665;BME280;49820;33.966;73.390;2023-09-18T09:16:49;78726.28;;;28.13;80.95
63665;BME280;49820;33.966;73.390;2023-09-18T09:19:30;78721.56;;;28.37;76.98
63665;BME280;49820;33.966;73.390;2023-09-18T09:21:59;78738.50;;;29.06;78.32
63665;BME280;49820;33.966;73.390;2023-09-18T09:24:41;78726.22;;;29.05;70.13
63665;BME280;49820;33.966;73.390;2023-09-18T09:27:11;78738.06;;;29.36;69.68
63665;BME280;49820;33.966;73.390;2023-09-18T09:29:51;78740.81;;;28.37;73.09
63665;BME280;49820;33.966;73.390;2023-09-18T09:32:31;78713.34;;;27.51;74.38
63665;BME280;49820;33.966;73.390;2023-09-18T09:35:02;78736.72;;;26.06;79.67
63665;BME280;49820;33.966;73.390;2023-09-18T09:37:36;78737.66;;;25.74;78.81
63665;BME280;49820;33.966;73.390;2023-09-18T09:40:06;78720.25;;;25.69;84.69
63665;BME280;49820;33.966;73.390;2023-09-18T09:42:41;78726.63;;;24.69;87.69
63665;BME280;49820;33.966;73.390;2023-09-18T09:45:12;78742.03;;;23.83;90.21
63665;BME280;49820;33.966;73.390;2023-09-18T09:47:43;78734.41;;;23.65;84.30
63665;BME280;49820;33.966;73.390;2023-09-18T09:50:14;78739.22;;;23.32;87.28
63665;BME280;49820;33.966;73.390;2023-09-18T09:52:49;78738.19;;;22.95;91.85
63665;BME280;49820;33.966;73.390;2023-09-18T09:55:31;78715.63;;;22.75;100.00
63665;BME280;49820;33.966;73.390;2023-09-18T09:58:04;78728.91;;;22.37;100.00
63665;BME280;49820;33.966;73.390;2023-09-18T10:00:41;78736.13;;;22.19;100.00
63665;BME280;49820;33.966;73.390;2023-09-18T10:03:19;78727.19;;;22.31;100.00
63665;BME280;49820;33.966;73.390;2023-09-18T10:05:51;78733.13;;;22.23;100.00
63665;BME280;49820;33.966;73.390;2023-09-18T10:08:26;78724.75;;;21.93;100.00
63665;BME280;49820;33.966;73.390;2023-09-18T10:11:05;78695.75;;;21.32;100.00
63665;BME280;49820;33.966;73.390;2023-09-18T10:14:30;78731.44;;;21.26;100.00
63665;BME280;49820;33.966;73.390;2023-09-18T10:17:18;78724.47;;;20.93;100.00
63665;BME280;49820;33.966;73.390;2023-09-18T10:20:02;78703.97;;;20.84;100.00
63665;BME280;49820;33.966;73.390;2023-09-18T10:22:38;78715.50;;;20.84;100.00
63665;BME280;49820;33.966;73.390;2023-09-18T10:27:49;78715.84;;;20.42;100.00
63665;BME280;49820;33.966;73.390;2023-09-18T10:30:19;78699.28;;;20.10;100.00
63665;BME280;49820;33.966;73.390;2023-09-18T10:32:52;78689.22;;;19.96;100.00
63665;BME280;49820;33.966;73.390;2023-09-18T10:35:22;78681.31;;;19.79;100.00
63665;BME280;49820;33.966;73.390;2023-09-18T10:37:54;78710.59;;;20.02;100.00
63665;BME280;49820;33.966;73.390;2023-09-18T10:40:25;78679.91;;;19.68;100.00
63665;BME280;49820;33.966;73.390;2023-09-18T10:42:57;78713.63;;;19.71;100.00
63665;BME280;49820;33.966;73.390;2023-09-18T10:45:27;78720.13;;;19.63;100.00
63665;BME280;49820;33.966;73.390;2023-09-18T10:47:57;78725.66;;;19.61;100.00
63665;BME280;49820;33.966;73.390;2023-09-18T10:50:28;78687.69;;;19.36;100.00
63665;BME280;49820;33.966;73.390;2023-09-18T10:53:15;78723.69;;;19.47;100.00
63665;BME280;49820;33.966;73.390;2023-09-18T10:55:45;78660.31;;;18.77;100.00
63665;BME280;49820;33.966;73.390;2023-09-18T10:58:23;78725.06;;;19.21;100.00
63665;BME280;49820;33.966;73.390;2023-09-18T11:00:55;78696.41;;;18.98;100.00
63665;BME280;49820;33.966;73.390;2023-09-18T11:03:26;78722.94;;;19.49;100.00
63665;BME280;49820;33.966;73.390;2023-09-18T11:06:12;78712.19;;;19.47;100.00
